Awobasan Maru — 7JQF — position and weather

sailwx.info

Track history (hours):
 
Tides and Currents Weather Stations Pressure Air Temp Water Temp Dewpoint Dewpoint Depression Visibility Wind Speed Wind Dir Waves Ship Positions

Awobasan Maru

Last reported at 2018-Feb-16 10:19 UTC. Time now 2018-Feb-20 23:30 UTC.
Position N 41°58' E 141°16'.

Length 320 m; draft 12.9 m.

Type: Cargo ship. MMSI: 432952000.

Date/timePositionNaut miles runAvg speedWind from/ knotsBaromVisibWave heightAir tempDewpointWater temp
2018-Feb-16 10:19N 41°58' E 141°16'413.5
2018-Feb-16 10:00N 41°55' E 141°20'713.3
2018-Feb-16 09:29N 41°50' E 141°26'713.4
2018-Feb-16 08:59N 41°45' E 141°33'713.2
2018-Feb-16 08:29N 41°41' E 141°39'812.9
2018-Feb-16 07:52N 41°33' E 141°43'613.8
2018-Feb-16 07:28N 41°28' E 141°44'40212.3
2018-Feb-14 22:52N 34°51' E 140°22'615.3
2018-Feb-14 22:26N 34°48' E 140°15'915.0
2018-Feb-14 21:50N 34°45' E 140°05'814.6
2018-Feb-14 21:18N 34°44' E 139°55'414.6
2018-Feb-14 21:00N 34°44' E 139°50'1115.4
2018-Feb-14 20:19N 34°50' E 139°40'413.9
2018-Feb-14 20:00N 34°55' E 139°39'611.6
2018-Feb-14 19:30N 35°00' E 139°41'5 9.3
2018-Feb-14 19:00N 35°05' E 139°43'5 9.3
2018-Feb-14 18:30N 35°09' E 139°44'3 7.1
2018-Feb-14 18:01N 35°12' E 139°46'611.9
2018-Feb-14 17:31N 35°18' E 139°44'612.1
2018-Feb-14 17:01N 35°24' E 139°43'4 8.7
2018-Feb-14 16:31N 35°24' E 139°48'4 7.4
2018-Feb-14 16:01N 35°22' E 139°52'0 0.3
2018-Feb-14 15:31N 35°22' E 139°52'0 0.0
2018-Feb-14 14:57N 35°22' E 139°52'0 0.0
2018-Feb-14 14:30N 35°22' E 139°52'0 0.0
2018-Feb-14 14:00N 35°22' E 139°52'0 0.0
2018-Feb-14 13:30N 35°22' E 139°52'0 0.0
2018-Feb-14 13:00N 35°22' E 139°52'0 0.0
2018-Feb-14 12:26N 35°22' E 139°52'0 0.0
2018-Feb-14 12:00N 35°22' E 139°52'0 0.0
2018-Feb-14 11:23N 35°22' E 139°52'0 0.0
2018-Feb-14 11:00N 35°22' E 139°52'0 0.0
2018-Feb-14 10:30N 35°22' E 139°52'0 0.0
2018-Feb-14 09:59N 35°22' E 139°52'0 0.0
2018-Feb-14 09:29N 35°22' E 139°52'0 0.0
2018-Feb-14 09:00N 35°22' E 139°52'0 0.0
2018-Feb-14 08:29N 35°22' E 139°52'0 0.0
2018-Feb-14 07:59N 35°22' E 139°52'0 0.0
2018-Feb-14 07:30N 35°22' E 139°52'0 0.0
2018-Feb-14 06:56N 35°22' E 139°52'0 0.0
2018-Feb-14 06:29N 35°22' E 139°52'0 0.0
2018-Feb-14 05:59N 35°22' E 139°52'0 0.0
2018-Feb-14 05:29N 35°22' E 139°52'0 0.0
2018-Feb-14 04:59N 35°22' E 139°52'0 0.0
2018-Feb-14 04:30N 35°22' E 139°52'0 0.0
2018-Feb-14 04:00N 35°22' E 139°52'0 0.0
2018-Feb-14 03:30N 35°22' E 139°52'0 0.0
2018-Feb-14 02:59N 35°22' E 139°52'0 0.0
2018-Feb-14 02:30N 35°22' E 139°52'0 0.0
2018-Feb-14 02:00N 35°22' E 139°52'0 0.0
2018-Feb-14 01:26N 35°22' E 139°52'0 0.0
2018-Feb-14 00:59N 35°22' E 139°52'0 0.0
2018-Feb-14 00:29N 35°22' E 139°52'0 0.0
2018-Feb-13 23:59N 35°22' E 139°52'0 0.0
2018-Feb-13 23:29N 35°22' E 139°52'0 0.0
2018-Feb-13 23:00N 35°22' E 139°52'0 0.0
2018-Feb-13 22:29N 35°22' E 139°52'0 0.0
2018-Feb-13 21:59N 35°22' E 139°52'0 0.0
2018-Feb-13 21:29N 35°22' E 139°52'0 0.0
2018-Feb-13 20:59N 35°22' E 139°52'0 0.0
2018-Feb-13 20:29N 35°22' E 139°52'0 0.0
2018-Feb-13 20:00N 35°22' E 139°52'0 0.0
2018-Feb-13 19:29N 35°22' E 139°52'0 0.0
2018-Feb-13 18:59N 35°22' E 139°52'0 0.0
2018-Feb-13 18:29N 35°22' E 139°52'0 0.0
2018-Feb-13 17:59N 35°22' E 139°52'0 0.0
2018-Feb-13 17:29N 35°22' E 139°52'0 0.0
2018-Feb-13 16:59N 35°22' E 139°52'0 0.0
2018-Feb-13 16:30N 35°22' E 139°52'0 0.0
2018-Feb-13 15:59N 35°22' E 139°52'0 0.0
2018-Feb-13 15:29N 35°22' E 139°52'0 0.0
2018-Feb-13 14:59N 35°22' E 139°52'0 0.0
2018-Feb-13 14:29N 35°22' E 139°52'0 0.0
2018-Feb-13 13:59N 35°22' E 139°52'0 0.0
2018-Feb-13 13:30N 35°22' E 139°52'0 0.0
2018-Feb-13 12:59N 35°22' E 139°52'0 0.0
2018-Feb-13 12:29N 35°22' E 139°52'0 0.0
2018-Feb-13 11:59N 35°22' E 139°52'0 0.0
2018-Feb-13 11:29N 35°22' E 139°52'0 0.0
2018-Feb-13 10:56N 35°22' E 139°52'0 0.0
2018-Feb-13 10:29N 35°22' E 139°52'0 0.0
2018-Feb-13 09:59N 35°22' E 139°52'0 0.0
2018-Feb-13 09:29N 35°22' E 139°52'0 0.0
2018-Feb-13 08:59N 35°22' E 139°52'0 0.0
2018-Feb-13 08:29N 35°22' E 139°52'0 0.0
2018-Feb-13 07:56N 35°22' E 139°52'0 0.0
2018-Feb-13 07:29N 35°22' E 139°52'0 0.0
2018-Feb-13 06:59N 35°22' E 139°52'0 0.0
2018-Feb-13 06:29N 35°22' E 139°52'0 0.0
2018-Feb-13 05:59N 35°22' E 139°52'0 0.0
2018-Feb-13 05:29N 35°22' E 139°52'0 0.0
2018-Feb-13 04:59N 35°22' E 139°52'0 0.0
2018-Feb-13 04:29N 35°22' E 139°52'0 0.0
2018-Feb-13 03:59N 35°22' E 139°52'0 0.0
2018-Feb-13 03:29N 35°22' E 139°52'0 0.0
2018-Feb-13 02:56N 35°22' E 139°52'0 0.0
2018-Feb-13 02:29N 35°22' E 139°52'0 0.0
2018-Feb-13 01:59N 35°22' E 139°52'0 0.0
2018-Feb-13 01:29N 35°22' E 139°52'0 0.0
2018-Feb-13 00:59N 35°22' E 139°52'0 0.0
2018-Feb-13 00:29N 35°22' E 139°52'0 0.0
2018-Feb-12 23:59N 35°22' E 139°52'0 0.0
2018-Feb-12 23:29N 35°22' E 139°52'0 0.0
2018-Feb-12 22:59N 35°22' E 139°52'0 0.0
2018-Feb-12 22:29N 35°22' E 139°52'0 0.0
2018-Feb-12 21:59N 35°22' E 139°52'0 0.0
2018-Feb-12 21:29N 35°22' E 139°52'0 0.0
2018-Feb-12 20:56N 35°22' E 139°52'0 0.0
2018-Feb-12 20:29N 35°22' E 139°52'0 0.0
2018-Feb-12 19:59N 35°22' E 139°52'0 0.0
2018-Feb-12 19:29N 35°22' E 139°52'0 0.0
2018-Feb-12 18:59N 35°22' E 139°52'0 0.0
2018-Feb-12 18:29N 35°22' E 139°52'0 0.0
2018-Feb-12 17:59N 35°22' E 139°52'0 0.0
2018-Feb-12 17:29N 35°22' E 139°52'0 0.0
2018-Feb-12 16:56N 35°22' E 139°52'0 0.0
2018-Feb-12 16:29N 35°22' E 139°52'0 0.0
2018-Feb-12 15:59N 35°22' E 139°52'0 0.0
2018-Feb-12 15:14N 35°22' E 139°52'0 0.0
2018-Feb-12 14:59N 35°22' E 139°52'0 0.0
2018-Feb-12 14:29N 35°22' E 139°52'0 0.0
2018-Feb-12 13:59N 35°22' E 139°52'0 0.0
2018-Feb-12 13:29N 35°22' E 139°52'0 0.0
2018-Feb-12 12:59N 35°22' E 139°52'0 0.0
2018-Feb-12 12:29N 35°22' E 139°52'0 0.0
2018-Feb-12 11:59N 35°22' E 139°52'0 0.0
2018-Feb-12 11:29N 35°22' E 139°52'0 0.0
2018-Feb-12 10:59N 35°22' E 139°52'0 0.0
2018-Feb-12 10:29N 35°22' E 139°52'0 0.0
2018-Feb-12 09:59N 35°22' E 139°52'0 0.0
2018-Feb-12 09:29N 35°22' E 139°52'0 0.0
2018-Feb-12 08:59N 35°22' E 139°52'0 0.0
2018-Feb-12 08:29N 35°22' E 139°52'0 0.0
2018-Feb-12 07:59N 35°22' E 139°52'0 0.0
2018-Feb-12 07:29N 35°22' E 139°52'0 0.0
2018-Feb-12 06:59N 35°22' E 139°52'0 0.0
2018-Feb-12 06:29N 35°22' E 139°52'0 0.0
2018-Feb-12 05:59N 35°22' E 139°52'0 0.0
2018-Feb-12 05:29N 35°22' E 139°52'0 0.0
2018-Feb-12 04:59N 35°22' E 139°52'0 0.0
2018-Feb-12 04:29N 35°22' E 139°52'0 0.0
2018-Feb-12 03:56N 35°22' E 139°52'0 0.0
2018-Feb-12 03:29N 35°22' E 139°52'0 0.0
2018-Feb-12 02:59N 35°22' E 139°52'0 0.0
2018-Feb-12 02:29N 35°22' E 139°52'0 0.0
2018-Feb-12 01:59N 35°22' E 139°52'0 0.0
2018-Feb-12 01:29N 35°22' E 139°52'0 0.0
2018-Feb-12 00:56N 35°22' E 139°52'0 0.0
2018-Feb-12 00:29N 35°22' E 139°52'0 0.0
2018-Feb-11 23:59N 35°22' E 139°52'0 0.0
2018-Feb-11 23:29N 35°22' E 139°52'0 0.0
2018-Feb-11 22:59N 35°22' E 139°52'0 0.0
2018-Feb-11 22:29N 35°22' E 139°52'0 0.0
2018-Feb-11 21:59N 35°22' E 139°52'0 0.0
2018-Feb-11 21:29N 35°22' E 139°52'0 0.0
2018-Feb-11 20:56N 35°22' E 139°52'0 0.0
2018-Feb-11 20:29N 35°22' E 139°52'0 0.0
2018-Feb-11 19:59N 35°22' E 139°52'0 0.0
2018-Feb-11 19:29N 35°22' E 139°52'0 0.0
2018-Feb-11 18:59N 35°22' E 139°52'0 0.0
2018-Feb-11 18:29N 35°22' E 139°52'0 0.7
2018-Feb-11 18:00N 35°22' E 139°52'3 6.4
2018-Feb-11 17:30N 35°24' E 139°48'3 5.5
2018-Feb-11 17:01N 35°26' E 139°50'0 0.2
2018-Feb-11 16:28N 35°26' E 139°50'0 0.0
2018-Feb-11 15:58N 35°26' E 139°50'0 0.0
2018-Feb-11 15:25N 35°26' E 139°50'0 0.0
2018-Feb-11 14:58N 35°26' E 139°50'0 0.0
2018-Feb-11 14:28N 35°26' E 139°50'0 0.0
2018-Feb-11 13:55N 35°26' E 139°50'0 0.0
2018-Feb-11 13:28N 35°26' E 139°50'0 0.0
2018-Feb-11 12:58N 35°26' E 139°50'0 0.0
2018-Feb-11 12:28N 35°26' E 139°50'0 0.0
2018-Feb-11 11:58N 35°26' E 139°50'0 0.1
2018-Feb-11 11:28N 35°26' E 139°50'0 0.1
2018-Feb-11 10:58N 35°26' E 139°50'0 0.0
2018-Feb-11 10:28N 35°26' E 139°50'0 0.0
2018-Feb-11 09:58N 35°26' E 139°50'0 0.0
2018-Feb-11 09:28N 35°26' E 139°50'0 0.0
2018-Feb-11 08:55N 35°26' E 139°50'0 0.0
2018-Feb-11 08:25N 35°26' E 139°50'0 0.0
2018-Feb-11 07:55N 35°26' E 139°50'0 0.0
2018-Feb-11 07:28N 35°26' E 139°50'0 0.0
2018-Feb-11 06:58N 35°26' E 139°50'0 0.0
2018-Feb-11 06:28N 35°26' E 139°50'0 0.0
2018-Feb-11 05:55N 35°26' E 139°50'0 0.0
2018-Feb-11 05:25N 35°26' E 139°50'0 0.0
2018-Feb-11 04:58N 35°26' E 139°50'0 0.1
2018-Feb-11 04:28N 35°26' E 139°50'0 0.0
2018-Feb-11 03:58N 35°26' E 139°50'0 0.0
2018-Feb-11 03:28N 35°26' E 139°50'0 0.0
2018-Feb-11 02:58N 35°26' E 139°50'0 0.0
2018-Feb-11 02:28N 35°26' E 139°50'0 0.1
2018-Feb-11 01:58N 35°26' E 139°50'0 0.1
2018-Feb-11 01:28N 35°26' E 139°50'0 0.0
2018-Feb-11 00:58N 35°26' E 139°50'0 0.0
2018-Feb-11 00:28N 35°26' E 139°50'0 0.0
2018-Feb-10 23:58N 35°26' E 139°50'0 0.0
2018-Feb-10 23:28N 35°26' E 139°50'0 0.0
2018-Feb-10 22:58N 35°26' E 139°50'0 0.0
2018-Feb-10 22:28N 35°26' E 139°50'0 0.0
2018-Feb-10 21:58N 35°26' E 139°50'0 0.0
2018-Feb-10 21:28N 35°26' E 139°50'0 0.1
2018-Feb-10 20:58N 35°26' E 139°50'0 0.0
2018-Feb-10 20:28N 35°26' E 139°50'0 0.0
2018-Feb-10 19:58N 35°26' E 139°50'0 0.0
2018-Feb-10 19:28N 35°26' E 139°50'0 0.1
2018-Feb-10 18:58N 35°26' E 139°50'0 0.0
2018-Feb-10 18:28N 35°26' E 139°50'0 0.1
2018-Feb-10 17:58N 35°26' E 139°50'0 0.0
2018-Feb-10 17:28N 35°26' E 139°50'0 0.1
2018-Feb-10 16:55N 35°26' E 139°50'0 0.1
2018-Feb-10 16:28N 35°26' E 139°50'0 0.1
2018-Feb-10 15:58N 35°26' E 139°50'0 0.1
2018-Feb-10 15:28N 35°26' E 139°50'0 0.1
2018-Feb-10 14:58N 35°26' E 139°51'0 0.0
2018-Feb-10 14:28N 35°26' E 139°51'0 0.0
2018-Feb-10 13:55N 35°26' E 139°51'0 0.0
2018-Feb-10 13:28N 35°26' E 139°51'0 0.0
2018-Feb-10 12:58N 35°26' E 139°51'0 0.0
2018-Feb-10 12:28N 35°26' E 139°51'0 0.1
2018-Feb-10 11:58N 35°26' E 139°50'0 0.2
2018-Feb-10 11:28N 35°26' E 139°50'0 0.2
2018-Feb-10 10:58N 35°26' E 139°50'0 0.2
2018-Feb-10 10:28N 35°26' E 139°50'0 0.0
2018-Feb-10 09:58N 35°26' E 139°50'0 0.0
2018-Feb-10 09:19N 35°26' E 139°50'0 0.1
2018-Feb-10 08:58N 35°26' E 139°50'0 0.2
2018-Feb-10 08:28N 35°26' E 139°50'0 0.1
2018-Feb-10 07:55N 35°26' E 139°50'0 0.0
2018-Feb-10 07:28N 35°26' E 139°50'0 0.1
2018-Feb-10 06:58N 35°26' E 139°50'0 0.1
2018-Feb-10 06:28N 35°26' E 139°50'0 0.0
2018-Feb-10 05:58N 35°26' E 139°50'0 0.0
2018-Feb-10 05:28N 35°26' E 139°50'0 0.0
2018-Feb-10 04:58N 35°26' E 139°50'0 0.0
2018-Feb-10 04:28N 35°26' E 139°50'0 0.0
2018-Feb-10 03:55N 35°26' E 139°50'0 0.0
2018-Feb-10 03:28N 35°26' E 139°50'0 0.1
2018-Feb-10 02:58N 35°26' E 139°50'0 0.0
2018-Feb-10 02:28N 35°26' E 139°50'0 0.0
2018-Feb-10 01:58N 35°26' E 139°50'0 0.0
2018-Feb-10 01:28N 35°26' E 139°50'0 0.0
2018-Feb-10 00:58N 35°26' E 139°50'0 0.0
2018-Feb-10 00:25N 35°26' E 139°50'0 0.0
2018-Feb-09 23:58N 35°26' E 139°50'0 0.0
2018-Feb-09 23:28N 35°26' E 139°50'0 0.0
2018-Feb-09 22:58N 35°26' E 139°50'0 0.0
2018-Feb-09 22:46N 35°26' E 139°50'0 0.0
2018-Feb-08 01:28N 35°26' E 139°50'0 0.0
2018-Feb-08 00:55N 35°26' E 139°50'0 0.0
2018-Feb-08 00:28N 35°26' E 139°50'0 0.0
2018-Feb-07 23:55N 35°26' E 139°50'0 0.0
2018-Feb-07 23:28N 35°26' E 139°50'0 0.0
2018-Feb-07 22:58N 35°26' E 139°50'0 0.0
2018-Feb-07 22:28N 35°26' E 139°50'0 0.0
2018-Feb-07 21:58N 35°26' E 139°50'0 0.1
2018-Feb-07 21:31N 35°26' E 139°50'0 0.0
2018-Feb-07 09:28N 35°26' E 139°50'0 0.0
2018-Feb-07 08:58N 35°26' E 139°50'0 0.0
2018-Feb-07 08:28N 35°26' E 139°50'0 0.0
2018-Feb-07 07:58N 35°26' E 139°50'0 0.0
2018-Feb-07 07:28N 35°26' E 139°50'0 0.0
2018-Feb-07 06:58N 35°26' E 139°50'0 0.0
2018-Feb-07 06:28N 35°26' E 139°50'0 0.0
2018-Feb-07 05:55N 35°26' E 139°50'0 0.0
2018-Feb-07 05:28N 35°26' E 139°50'0 0.0
2018-Feb-07 04:58N 35°26' E 139°50'0 0.0
2018-Feb-07 04:28N 35°26' E 139°50'0 0.0
2018-Feb-07 03:58N 35°26' E 139°50'0 0.0
2018-Feb-07 03:28N 35°26' E 139°50'0 0.0
2018-Feb-07 02:58N 35°26' E 139°50'0 0.0
2018-Feb-07 02:28N 35°26' E 139°50'0 0.0
2018-Feb-07 01:58N 35°26' E 139°50'0 0.1
2018-Feb-07 01:28N 35°26' E 139°50'0 0.1
2018-Feb-07 00:58N 35°26' E 139°50'0 0.0
2018-Feb-07 00:28N 35°26' E 139°50'0 0.1
2018-Feb-06 23:58N 35°26' E 139°50'0 0.1
2018-Feb-06 23:19N 35°26' E 139°50'0 0.1
2018-Feb-06 22:58N 35°26' E 139°50'0 0.1
2018-Feb-06 22:25N 35°26' E 139°50'0 0.0
2018-Feb-06 21:58N 35°26' E 139°50'0 0.0
2018-Feb-06 21:25N 35°26' E 139°50'0 0.0
2018-Feb-06 20:58N 35°26' E 139°50'0 0.0
2018-Feb-06 20:28N 35°26' E 139°50'0 0.0
2018-Feb-06 19:58N 35°26' E 139°50'0 0.1
2018-Feb-06 19:28N 35°26' E 139°50'0 0.1
2018-Feb-06 18:55N 35°26' E 139°50'0 0.0
2018-Feb-06 18:28N 35°26' E 139°50'0 0.1
2018-Feb-06 17:55N 35°26' E 139°50'0 0.1
2018-Feb-06 17:28N 35°26' E 139°50'0 0.0
2018-Feb-06 16:58N 35°26' E 139°50'0 0.1
2018-Feb-06 16:28N 35°26' E 139°50'0 0.0
2018-Feb-06 15:58N 35°26' E 139°50'0 0.1
2018-Feb-06 15:28N 35°26' E 139°50'0 0.0
2018-Feb-06 14:58N 35°26' E 139°50'0 0.0
2018-Feb-06 14:28N 35°26' E 139°50'0 0.0
2018-Feb-06 13:58N 35°26' E 139°50'0 0.0
2018-Feb-06 13:28N 35°26' E 139°50'0 0.0
2018-Feb-06 12:58N 35°26' E 139°50'0 0.0
2018-Feb-06 12:22N 35°26' E 139°50'0 0.2
2018-Feb-06 11:25N 35°26' E 139°50'0 0.3
2018-Feb-06 10:58N 35°26' E 139°50'0 0.1
2018-Feb-06 10:28N 35°26' E 139°50'  
Track history (hours):
 
Tides and Currents Weather Stations Pressure Air Temp Water Temp Dewpoint Dewpoint Depression Visibility Wind Speed Wind Dir Waves Ship Positions

Awobasan Maru

Last reported at 2018-Feb-16 10:19 UTC. Time now 2018-Feb-20 23:30 UTC.
Position N 41°58' E 141°16'.

Length 320 m; draft 12.9 m.

Type: Cargo ship. MMSI: 432952000.

Date/timePositionNaut miles runAvg speedWind from/ knotsBaromVisibWave heightAir tempDewpointWater temp
2018-Feb-16 10:19N 41°58' E 141°16'413.5
2018-Feb-16 10:00N 41°55' E 141°20'713.3
2018-Feb-16 09:29N 41°50' E 141°26'713.4
2018-Feb-16 08:59N 41°45' E 141°33'713.2
2018-Feb-16 08:29N 41°41' E 141°39'812.9
2018-Feb-16 07:52N 41°33' E 141°43'613.8
2018-Feb-16 07:28N 41°28' E 141°44'40212.3
2018-Feb-14 22:52N 34°51' E 140°22'615.3
2018-Feb-14 22:26N 34°48' E 140°15'915.0
2018-Feb-14 21:50N 34°45' E 140°05'814.6
2018-Feb-14 21:18N 34°44' E 139°55'414.6
2018-Feb-14 21:00N 34°44' E 139°50'1115.4
2018-Feb-14 20:19N 34°50' E 139°40'413.9
2018-Feb-14 20:00N 34°55' E 139°39'611.6
2018-Feb-14 19:30N 35°00' E 139°41'5 9.3
2018-Feb-14 19:00N 35°05' E 139°43'5 9.3
2018-Feb-14 18:30N 35°09' E 139°44'3 7.1
2018-Feb-14 18:01N 35°12' E 139°46'611.9
2018-Feb-14 17:31N 35°18' E 139°44'612.1
2018-Feb-14 17:01N 35°24' E 139°43'4 8.7
2018-Feb-14 16:31N 35°24' E 139°48'4 7.4
2018-Feb-14 16:01N 35°22' E 139°52'0 0.3
2018-Feb-14 15:31N 35°22' E 139°52'0 0.0
2018-Feb-14 14:57N 35°22' E 139°52'0 0.0
2018-Feb-14 14:30N 35°22' E 139°52'0 0.0
2018-Feb-14 14:00N 35°22' E 139°52'0 0.0
2018-Feb-14 13:30N 35°22' E 139°52'0 0.0
2018-Feb-14 13:00N 35°22' E 139°52'0 0.0
2018-Feb-14 12:26N 35°22' E 139°52'0 0.0
2018-Feb-14 12:00N 35°22' E 139°52'0 0.0
2018-Feb-14 11:23N 35°22' E 139°52'0 0.0
2018-Feb-14 11:00N 35°22' E 139°52'0 0.0
2018-Feb-14 10:30N 35°22' E 139°52'0 0.0
2018-Feb-14 09:59N 35°22' E 139°52'0 0.0
2018-Feb-14 09:29N 35°22' E 139°52'0 0.0
2018-Feb-14 09:00N 35°22' E 139°52'0 0.0
2018-Feb-14 08:29N 35°22' E 139°52'0 0.0
2018-Feb-14 07:59N 35°22' E 139°52'0 0.0
2018-Feb-14 07:30N 35°22' E 139°52'0 0.0
2018-Feb-14 06:56N 35°22' E 139°52'0 0.0
2018-Feb-14 06:29N 35°22' E 139°52'0 0.0
2018-Feb-14 05:59N 35°22' E 139°52'0 0.0
2018-Feb-14 05:29N 35°22' E 139°52'0 0.0
2018-Feb-14 04:59N 35°22' E 139°52'0 0.0
2018-Feb-14 04:30N 35°22' E 139°52'0 0.0
2018-Feb-14 04:00N 35°22' E 139°52'0 0.0
2018-Feb-14 03:30N 35°22' E 139°52'0 0.0
2018-Feb-14 02:59N 35°22' E 139°52'0 0.0
2018-Feb-14 02:30N 35°22' E 139°52'0 0.0
2018-Feb-14 02:00N 35°22' E 139°52'0 0.0
2018-Feb-14 01:26N 35°22' E 139°52'0 0.0
2018-Feb-14 00:59N 35°22' E 139°52'0 0.0
2018-Feb-14 00:29N 35°22' E 139°52'0 0.0
2018-Feb-13 23:59N 35°22' E 139°52'0 0.0
2018-Feb-13 23:29N 35°22' E 139°52'0 0.0
2018-Feb-13 23:00N 35°22' E 139°52'0 0.0
2018-Feb-13 22:29N 35°22' E 139°52'0 0.0
2018-Feb-13 21:59N 35°22' E 139°52'0 0.0
2018-Feb-13 21:29N 35°22' E 139°52'0 0.0
2018-Feb-13 20:59N 35°22' E 139°52'0 0.0
2018-Feb-13 20:29N 35°22' E 139°52'0 0.0
2018-Feb-13 20:00N 35°22' E 139°52'0 0.0
2018-Feb-13 19:29N 35°22' E 139°52'0 0.0
2018-Feb-13 18:59N 35°22' E 139°52'0 0.0
2018-Feb-13 18:29N 35°22' E 139°52'0 0.0
2018-Feb-13 17:59N 35°22' E 139°52'0 0.0
2018-Feb-13 17:29N 35°22' E 139°52'0 0.0
2018-Feb-13 16:59N 35°22' E 139°52'0 0.0
2018-Feb-13 16:30N 35°22' E 139°52'0 0.0
2018-Feb-13 15:59N 35°22' E 139°52'0 0.0
2018-Feb-13 15:29N 35°22' E 139°52'0 0.0
2018-Feb-13 14:59N 35°22' E 139°52'0 0.0
2018-Feb-13 14:29N 35°22' E 139°52'0 0.0
2018-Feb-13 13:59N 35°22' E 139°52'0 0.0
2018-Feb-13 13:30N 35°22' E 139°52'0 0.0
2018-Feb-13 12:59N 35°22' E 139°52'0 0.0
2018-Feb-13 12:29N 35°22' E 139°52'0 0.0
2018-Feb-13 11:59N 35°22' E 139°52'0 0.0
2018-Feb-13 11:29N 35°22' E 139°52'0 0.0
2018-Feb-13 10:56N 35°22' E 139°52'0 0.0
2018-Feb-13 10:29N 35°22' E 139°52'0 0.0
2018-Feb-13 09:59N 35°22' E 139°52'0 0.0
2018-Feb-13 09:29N 35°22' E 139°52'0 0.0
2018-Feb-13 08:59N 35°22' E 139°52'0 0.0
2018-Feb-13 08:29N 35°22' E 139°52'0 0.0
2018-Feb-13 07:56N 35°22' E 139°52'0 0.0
2018-Feb-13 07:29N 35°22' E 139°52'0 0.0
2018-Feb-13 06:59N 35°22' E 139°52'0 0.0
2018-Feb-13 06:29N 35°22' E 139°52'0 0.0
2018-Feb-13 05:59N 35°22' E 139°52'0 0.0
2018-Feb-13 05:29N 35°22' E 139°52'0 0.0
2018-Feb-13 04:59N 35°22' E 139°52'0 0.0
2018-Feb-13 04:29N 35°22' E 139°52'0 0.0
2018-Feb-13 03:59N 35°22' E 139°52'0 0.0
2018-Feb-13 03:29N 35°22' E 139°52'0 0.0
2018-Feb-13 02:56N 35°22' E 139°52'0 0.0
2018-Feb-13 02:29N 35°22' E 139°52'0 0.0
2018-Feb-13 01:59N 35°22' E 139°52'0 0.0
2018-Feb-13 01:29N 35°22' E 139°52'0 0.0
2018-Feb-13 00:59N 35°22' E 139°52'0 0.0
2018-Feb-13 00:29N 35°22' E 139°52'0 0.0
2018-Feb-12 23:59N 35°22' E 139°52'0 0.0
2018-Feb-12 23:29N 35°22' E 139°52'0 0.0
2018-Feb-12 22:59N 35°22' E 139°52'0 0.0
2018-Feb-12 22:29N 35°22' E 139°52'0 0.0
2018-Feb-12 21:59N 35°22' E 139°52'0 0.0
2018-Feb-12 21:29N 35°22' E 139°52'0 0.0
2018-Feb-12 20:56N 35°22' E 139°52'0 0.0
2018-Feb-12 20:29N 35°22' E 139°52'0 0.0
2018-Feb-12 19:59N 35°22' E 139°52'0 0.0
2018-Feb-12 19:29N 35°22' E 139°52'0 0.0
2018-Feb-12 18:59N 35°22' E 139°52'0 0.0
2018-Feb-12 18:29N 35°22' E 139°52'0 0.0
2018-Feb-12 17:59N 35°22' E 139°52'0 0.0
2018-Feb-12 17:29N 35°22' E 139°52'0 0.0
2018-Feb-12 16:56N 35°22' E 139°52'0 0.0
2018-Feb-12 16:29N 35°22' E 139°52'0 0.0
2018-Feb-12 15:59N 35°22' E 139°52'0 0.0
2018-Feb-12 15:14N 35°22' E 139°52'0 0.0
2018-Feb-12 14:59N 35°22' E 139°52'0 0.0
2018-Feb-12 14:29N 35°22' E 139°52'0 0.0
2018-Feb-12 13:59N 35°22' E 139°52'0 0.0
2018-Feb-12 13:29N 35°22' E 139°52'0 0.0
2018-Feb-12 12:59N 35°22' E 139°52'0 0.0
2018-Feb-12 12:29N 35°22' E 139°52'0 0.0
2018-Feb-12 11:59N 35°22' E 139°52'0 0.0
2018-Feb-12 11:29N 35°22' E 139°52'0 0.0
2018-Feb-12 10:59N 35°22' E 139°52'0 0.0
2018-Feb-12 10:29N 35°22' E 139°52'0 0.0
2018-Feb-12 09:59N 35°22' E 139°52'0 0.0
2018-Feb-12 09:29N 35°22' E 139°52'0 0.0
2018-Feb-12 08:59N 35°22' E 139°52'0 0.0
2018-Feb-12 08:29N 35°22' E 139°52'0 0.0
2018-Feb-12 07:59N 35°22' E 139°52'0 0.0
2018-Feb-12 07:29N 35°22' E 139°52'0 0.0
2018-Feb-12 06:59N 35°22' E 139°52'0 0.0
2018-Feb-12 06:29N 35°22' E 139°52'0 0.0
2018-Feb-12 05:59N 35°22' E 139°52'0 0.0
2018-Feb-12 05:29N 35°22' E 139°52'0 0.0
2018-Feb-12 04:59N 35°22' E 139°52'0 0.0
2018-Feb-12 04:29N 35°22' E 139°52'0 0.0
2018-Feb-12 03:56N 35°22' E 139°52'0 0.0
2018-Feb-12 03:29N 35°22' E 139°52'0 0.0
2018-Feb-12 02:59N 35°22' E 139°52'0 0.0
2018-Feb-12 02:29N 35°22' E 139°52'0 0.0
2018-Feb-12 01:59N 35°22' E 139°52'0 0.0
2018-Feb-12 01:29N 35°22' E 139°52'0 0.0
2018-Feb-12 00:56N 35°22' E 139°52'0 0.0
2018-Feb-12 00:29N 35°22' E 139°52'0 0.0
2018-Feb-11 23:59N 35°22' E 139°52'0 0.0
2018-Feb-11 23:29N 35°22' E 139°52'0 0.0
2018-Feb-11 22:59N 35°22' E 139°52'0 0.0
2018-Feb-11 22:29N 35°22' E 139°52'0 0.0
2018-Feb-11 21:59N 35°22' E 139°52'0 0.0
2018-Feb-11 21:29N 35°22' E 139°52'0 0.0
2018-Feb-11 20:56N 35°22' E 139°52'0 0.0
2018-Feb-11 20:29N 35°22' E 139°52'0 0.0
2018-Feb-11 19:59N 35°22' E 139°52'0 0.0
2018-Feb-11 19:29N 35°22' E 139°52'0 0.0
2018-Feb-11 18:59N 35°22' E 139°52'0 0.0
2018-Feb-11 18:29N 35°22' E 139°52'0 0.7
2018-Feb-11 18:00N 35°22' E 139°52'3 6.4
2018-Feb-11 17:30N 35°24' E 139°48'3 5.5
2018-Feb-11 17:01N 35°26' E 139°50'0 0.2
2018-Feb-11 16:28N 35°26' E 139°50'0 0.0
2018-Feb-11 15:58N 35°26' E 139°50'0 0.0
2018-Feb-11 15:25N 35°26' E 139°50'0 0.0
2018-Feb-11 14:58N 35°26' E 139°50'0 0.0
2018-Feb-11 14:28N 35°26' E 139°50'0 0.0
2018-Feb-11 13:55N 35°26' E 139°50'0 0.0
2018-Feb-11 13:28N 35°26' E 139°50'0 0.0
2018-Feb-11 12:58N 35°26' E 139°50'0 0.0
2018-Feb-11 12:28N 35°26' E 139°50'0 0.0
2018-Feb-11 11:58N 35°26' E 139°50'0 0.1
2018-Feb-11 11:28N 35°26' E 139°50'0 0.1
2018-Feb-11 10:58N 35°26' E 139°50'0 0.0
2018-Feb-11 10:28N 35°26' E 139°50'0 0.0
2018-Feb-11 09:58N 35°26' E 139°50'0 0.0
2018-Feb-11 09:28N 35°26' E 139°50'0 0.0
2018-Feb-11 08:55N 35°26' E 139°50'0 0.0
2018-Feb-11 08:25N 35°26' E 139°50'0 0.0
2018-Feb-11 07:55N 35°26' E 139°50'0 0.0
2018-Feb-11 07:28N 35°26' E 139°50'0 0.0
2018-Feb-11 06:58N 35°26' E 139°50'0 0.0
2018-Feb-11 06:28N 35°26' E 139°50'0 0.0
2018-Feb-11 05:55N 35°26' E 139°50'0 0.0
2018-Feb-11 05:25N 35°26' E 139°50'0 0.0
2018-Feb-11 04:58N 35°26' E 139°50'0 0.1
2018-Feb-11 04:28N 35°26' E 139°50'0 0.0
2018-Feb-11 03:58N 35°26' E 139°50'0 0.0
2018-Feb-11 03:28N 35°26' E 139°50'0 0.0
2018-Feb-11 02:58N 35°26' E 139°50'0 0.0
2018-Feb-11 02:28N 35°26' E 139°50'0 0.1
2018-Feb-11 01:58N 35°26' E 139°50'0 0.1
2018-Feb-11 01:28N 35°26' E 139°50'0 0.0
2018-Feb-11 00:58N 35°26' E 139°50'0 0.0
2018-Feb-11 00:28N 35°26' E 139°50'0 0.0
2018-Feb-10 23:58N 35°26' E 139°50'0 0.0
2018-Feb-10 23:28N 35°26' E 139°50'0 0.0
2018-Feb-10 22:58N 35°26' E 139°50'0 0.0
2018-Feb-10 22:28N 35°26' E 139°50'0 0.0
2018-Feb-10 21:58N 35°26' E 139°50'0 0.0
2018-Feb-10 21:28N 35°26' E 139°50'0 0.1
2018-Feb-10 20:58N 35°26' E 139°50'0 0.0
2018-Feb-10 20:28N 35°26' E 139°50'0 0.0
2018-Feb-10 19:58N 35°26' E 139°50'0 0.0
2018-Feb-10 19:28N 35°26' E 139°50'0 0.1
2018-Feb-10 18:58N 35°26' E 139°50'0 0.0
2018-Feb-10 18:28N 35°26' E 139°50'0 0.1
2018-Feb-10 17:58N 35°26' E 139°50'0 0.0
2018-Feb-10 17:28N 35°26' E 139°50'0 0.1
2018-Feb-10 16:55N 35°26' E 139°50'0 0.1
2018-Feb-10 16:28N 35°26' E 139°50'0 0.1
2018-Feb-10 15:58N 35°26' E 139°50'0 0.1
2018-Feb-10 15:28N 35°26' E 139°50'0 0.1
2018-Feb-10 14:58N 35°26' E 139°51'0 0.0
2018-Feb-10 14:28N 35°26' E 139°51'0 0.0
2018-Feb-10 13:55N 35°26' E 139°51'0 0.0
2018-Feb-10 13:28N 35°26' E 139°51'0 0.0
2018-Feb-10 12:58N 35°26' E 139°51'0 0.0
2018-Feb-10 12:28N 35°26' E 139°51'0 0.1
2018-Feb-10 11:58N 35°26' E 139°50'0 0.2
2018-Feb-10 11:28N 35°26' E 139°50'0 0.2
2018-Feb-10 10:58N 35°26' E 139°50'0 0.2
2018-Feb-10 10:28N 35°26' E 139°50'0 0.0
2018-Feb-10 09:58N 35°26' E 139°50'0 0.0
2018-Feb-10 09:19N 35°26' E 139°50'0 0.1
2018-Feb-10 08:58N 35°26' E 139°50'0 0.2
2018-Feb-10 08:28N 35°26' E 139°50'0 0.1
2018-Feb-10 07:55N 35°26' E 139°50'0 0.0
2018-Feb-10 07:28N 35°26' E 139°50'0 0.1
2018-Feb-10 06:58N 35°26' E 139°50'0 0.1
2018-Feb-10 06:28N 35°26' E 139°50'0 0.0
2018-Feb-10 05:58N 35°26' E 139°50'0 0.0
2018-Feb-10 05:28N 35°26' E 139°50'0 0.0
2018-Feb-10 04:58N 35°26' E 139°50'0 0.0
2018-Feb-10 04:28N 35°26' E 139°50'0 0.0
2018-Feb-10 03:55N 35°26' E 139°50'0 0.0
2018-Feb-10 03:28N 35°26' E 139°50'0 0.1
2018-Feb-10 02:58N 35°26' E 139°50'0 0.0
2018-Feb-10 02:28N 35°26' E 139°50'0 0.0
2018-Feb-10 01:58N 35°26' E 139°50'0 0.0
2018-Feb-10 01:28N 35°26' E 139°50'0 0.0
2018-Feb-10 00:58N 35°26' E 139°50'0 0.0
2018-Feb-10 00:25N 35°26' E 139°50'0 0.0
2018-Feb-09 23:58N 35°26' E 139°50'0 0.0
2018-Feb-09 23:28N 35°26' E 139°50'0 0.0
2018-Feb-09 22:58N 35°26' E 139°50'0 0.0
2018-Feb-09 22:46N 35°26' E 139°50'0 0.0
2018-Feb-08 01:28N 35°26' E 139°50'0 0.0
2018-Feb-08 00:55N 35°26' E 139°50'0 0.0
2018-Feb-08 00:28N 35°26' E 139°50'0 0.0
2018-Feb-07 23:55N 35°26' E 139°50'0 0.0
2018-Feb-07 23:28N 35°26' E 139°50'0 0.0
2018-Feb-07 22:58N 35°26' E 139°50'0 0.0
2018-Feb-07 22:28N 35°26' E 139°50'0 0.0
2018-Feb-07 21:58N 35°26' E 139°50'0 0.1
2018-Feb-07 21:31N 35°26' E 139°50'0 0.0
2018-Feb-07 09:28N 35°26' E 139°50'0 0.0
2018-Feb-07 08:58N 35°26' E 139°50'0 0.0
2018-Feb-07 08:28N 35°26' E 139°50'0 0.0
2018-Feb-07 07:58N 35°26' E 139°50'0 0.0
2018-Feb-07 07:28N 35°26' E 139°50'0 0.0
2018-Feb-07 06:58N 35°26' E 139°50'0 0.0
2018-Feb-07 06:28N 35°26' E 139°50'0 0.0
2018-Feb-07 05:55N 35°26' E 139°50'0 0.0
2018-Feb-07 05:28N 35°26' E 139°50'0 0.0
2018-Feb-07 04:58N 35°26' E 139°50'0 0.0
2018-Feb-07 04:28N 35°26' E 139°50'0 0.0
2018-Feb-07 03:58N 35°26' E 139°50'0 0.0
2018-Feb-07 03:28N 35°26' E 139°50'0 0.0
2018-Feb-07 02:58N 35°26' E 139°50'0 0.0
2018-Feb-07 02:28N 35°26' E 139°50'0 0.0
2018-Feb-07 01:58N 35°26' E 139°50'0 0.1
2018-Feb-07 01:28N 35°26' E 139°50'0 0.1
2018-Feb-07 00:58N 35°26' E 139°50'0 0.0
2018-Feb-07 00:28N 35°26' E 139°50'0 0.1
2018-Feb-06 23:58N 35°26' E 139°50'0 0.1
2018-Feb-06 23:19N 35°26' E 139°50'0 0.1
2018-Feb-06 22:58N 35°26' E 139°50'0 0.1
2018-Feb-06 22:25N 35°26' E 139°50'0 0.0
2018-Feb-06 21:58N 35°26' E 139°50'0 0.0
2018-Feb-06 21:25N 35°26' E 139°50'0 0.0
2018-Feb-06 20:58N 35°26' E 139°50'0 0.0
2018-Feb-06 20:28N 35°26' E 139°50'0 0.0
2018-Feb-06 19:58N 35°26' E 139°50'0 0.1
2018-Feb-06 19:28N 35°26' E 139°50'0 0.1
2018-Feb-06 18:55N 35°26' E 139°50'0 0.0
2018-Feb-06 18:28N 35°26' E 139°50'0 0.1
2018-Feb-06 17:55N 35°26' E 139°50'0 0.1
2018-Feb-06 17:28N 35°26' E 139°50'0 0.0
2018-Feb-06 16:58N 35°26' E 139°50'0 0.1
2018-Feb-06 16:28N 35°26' E 139°50'0 0.0
2018-Feb-06 15:58N 35°26' E 139°50'0 0.1
2018-Feb-06 15:28N 35°26' E 139°50'0 0.0
2018-Feb-06 14:58N 35°26' E 139°50'0 0.0
2018-Feb-06 14:28N 35°26' E 139°50'0 0.0
2018-Feb-06 13:58N 35°26' E 139°50'0 0.0
2018-Feb-06 13:28N 35°26' E 139°50'0 0.0
2018-Feb-06 12:58N 35°26' E 139°50'0 0.0
2018-Feb-06 12:22N 35°26' E 139°50'0 0.2
2018-Feb-06 11:25N 35°26' E 139°50'0 0.3
2018-Feb-06 10:58N 35°26' E 139°50'0 0.1
2018-Feb-06 10:28N 35°26' E 139°50'  

Dump ship's entire track history